首页
METAR-TAF:

METAR-TAF

机场 :

杰克逊维尔, 佛罗里达州, 美国

纬度: 30-13-07N, 经度: 081-52-36W, 海拔: 25米

当前天气观测

该预报发布于5分钟前的05:55 UTC
静风
温度 25°C
湿度 79%
气压 1018 hPa
能見度: 16.1公里
少量云层高于8000英尺

METAR: KVQQ 270555Z AUTO 00000KT 10SM FEW080 25/21 A3007 RMK AO2

时间: 02:00 (06:00 UTC)

预报

该预报发布于36分钟前的05:24 UTC
预报有效从27日的 06点(UTC)到 28日的 06点(UTC)
风速3节,风向多变
能見度: 10公里
散云层高于7000英尺
从 27日的 1300点(UTC)
风速7节,风向西转西南
能見度: 10公里
散云层高于25000英尺
从 27日的 2000点(UTC)
风速9节,风向南转南东
能見度: 10公里
散云层高于8000英尺
附近有阵雨

TAF: KVQQ 270524Z 2706/2806 VRB03KT P6SM SCT070 FM271300 25007KT P6SM SCT250 FM272000 15009KT P6SM VCSH SCT080

超过4000个机场的气象观测和天气预报(METAR&TAF报告)。

可查询的气象台以黄色和红色小点在地图上表示。

将鼠标移到小点上方,可查看气象台名称。

然后点击查看天气观测和预报。

如需切换地图:点击带黑十字的绿色按钮放大地图;点击带横线的绿色按钮缩小地图;或者点击绿色箭头查看邻近地区的地图。


METAR-TAF: